Pagrindinis puslapis
METAR-TAF:

METAR-TAF

Oro uostai :

Anapa, Rusija

platuma: 44-54N, ilguma: 037-19E, Aukštis: 53 m

Dabartinis oras

Ataskaita buvo paskelbta 44 minutes, ne 23:30 UTC
Vėjas 8 kt iš Šiaurės
Temperatūra 16°C
Drėgmė 63%
Slėgis 1017 hPa
Matomumas 10 km arba daugiau
Mažai debesys

METAR: URKA 182330Z 35004MPS 9999 FEW/// 16/09 Q1017 R04/010070 NOSIG RMK QFE759/1012

Laikas: 03:14 (00:14 UTC)

Prognozė

Ataskaita buvo paskelbta 1 valandą ir 19 minutes, ne 22:55 UTC
Prognozė galioja nuo 19 metu 00 UTC su 19 metu 24 UTC
Vėjas 12 kt iš Šiaurės/Šiaurės Vakarų su gūsio iki 23 kt
Matomumas 10 km arba daugiau
Išsisklaidę debesys ne aukštis 3000 ft, Liūtiniai kamuoliniai debesys.
Laikinai
nuo 19 metu 00 UTC su 19 metu 13 UTC
Vėjas 12 kt iš Šiaurės su gūsio iki 23 kt
Tapsmas
nuo 19 metu 13 UTC su 19 metu 15 UTC
Vėjas 6 kt iš Šiaurės Rytų su gūsio iki 16 kt

TAF: URKA 182255Z 1900/1924 33006G12MPS 9999 SCT030CB TEMPO 1900/1913 01006G12MPS BECMG 1913/1915 05003G08MPS

Orai ataskaitas ir orų prognozės (METAR, TAF).

turimą stotys yra geltonos ir raudonos taškus žemėlapyje.

Perkelti pele per norėdami pamatyti stoties vardą.

Tada spustelėkite, norėdami matyti oro stebėjimo ir prognozės.

Norėdami pakeisti žemėlapį: spustelėkite ant žalios mygtukų su juodo kryžiaus žemyn,; žalią mygtuką su brūkšneliu, jei norite nutolinti; arba žalių rodyklių gretimoms žemėlapius.


METAR-TAF: